Private Wetterstation Sandau
Wetterdaten: Freitag, 24.08.2012
Datum Zeit Temp. A. Feuchte A. Luftdruck Regen Wind Richtung Richtung Taupunkt Windchill
24.08.2012 00:01 15,2 C 71 % 1013,0 hPa 0,0 l/m 0,0 km/h (0 Bft) SO 135 10,0 C 15,2 C
24.08.2012 00:06 15,1 C 71 % 1013,0 hPa 0,0 l/m 0,0 km/h (0 Bft) SO 135 9,9 C 15,1 C
24.08.2012 00:11 15,0 C 72 % 1012,9 hPa 0,0 l/m 0,0 km/h (0 Bft) SO 135 10,0 C 15,0 C
24.08.2012 00:16 14,9 C 71 % 1013,0 hPa 0,0 l/m 0,0 km/h (0 Bft) SO 135 9,7 C 14,9 C
24.08.2012 00:21 14,9 C 71 % 1012,9 hPa 0,0 l/m 0,0 km/h (0 Bft) SO 135 9,7 C 14,9 C
24.08.2012 00:26 14,9 C 72 % 1012,9 hPa 0,0 l/m 0,0 km/h (0 Bft) SO 135 9,9 C 14,9 C
24.08.2012 00:31 14,8 C 72 % 1012,8 hPa 0,0 l/m 0,0 km/h (0 Bft) SO 135 9,8 C 14,8 C
24.08.2012 00:36 14,8 C 73 % 1012,8 hPa 0,0 l/m 1,8 km/h (1 Bft) SO 135 10,0 C 14,8 C
24.08.2012 00:41 14,8 C 73 % 1012,7 hPa 0,0 l/m 1,4 km/h (1 Bft) SO 135 10,0 C 14,8 C
24.08.2012 00:46 14,8 C 73 % 1012,8 hPa 0,0 l/m 0,0 km/h (0 Bft) SO 135 10,0 C 14,8 C
24.08.2012 00:51 14,8 C 73 % 1012,7 hPa 0,0 l/m 0,0 km/h (0 Bft) SO 135 10,0 C 14,8 C
24.08.2012 00:56 14,6 C 73 % 1012,6 hPa 0,0 l/m 0,0 km/h (0 Bft) SO 135 9,8 C 14,6 C
24.08.2012 01:01 14,4 C 73 % 1012,4 hPa 0,0 l/m 1,4 km/h (1 Bft) O 90 9,6 C 14,4 C
24.08.2012 01:06 14,3 C 73 % 1012,5 hPa 0,0 l/m 0,0 km/h (0 Bft) O 90 9,5 C 14,3 C
24.08.2012 01:11 14,2 C 73 % 1012,7 hPa 0,0 l/m 0,0 km/h (0 Bft) O 90 9,4 C 14,2 C
24.08.2012 01:16 14,1 C 73 % 1012,6 hPa 0,0 l/m 0,0 km/h (0 Bft) O 90 9,3 C 14,1 C
24.08.2012 01:21 13,9 C 73 % 1012,6 hPa 0,0 l/m 0,0 km/h (0 Bft) O 90 9,1 C 13,9 C
24.08.2012 01:26 13,9 C 73 % 1012,5 hPa 0,0 l/m 0,0 km/h (0 Bft) O 90 9,1 C 13,9 C
24.08.2012 01:31 13,8 C 74 % 1012,5 hPa 0,0 l/m 0,0 km/h (0 Bft) O 90 9,2 C 13,8 C
24.08.2012 01:36 13,8 C 75 % 1012,5 hPa 0,0 l/m 0,0 km/h (0 Bft) O 90 9,4 C 13,8 C
24.08.2012 01:41 13,8 C 75 % 1012,3 hPa 0,0 l/m 0,0 km/h (0 Bft) O 90 9,4 C 13,8 C
24.08.2012 01:46 13,8 C 76 % 1012,3 hPa 0,0 l/m 2,5 km/h (1 Bft) O-NO 67 9,6 C 13,8 C
24.08.2012 01:51 13,8 C 76 % 1012,4 hPa 0,0 l/m 0,0 km/h (0 Bft) SO 135 9,6 C 13,8 C
24.08.2012 01:56 13,8 C 76 % 1012,4 hPa 0,0 l/m 0,0 km/h (0 Bft) O-SO 112 9,6 C 13,8 C
24.08.2012 02:01 13,8 C 76 % 1012,4 hPa 0,0 l/m 3,2 km/h (1 Bft) NO 45 9,6 C 13,8 C
24.08.2012 02:06 13,8 C 76 % 1012,2 hPa 0,0 l/m 2,2 km/h (1 Bft) O-NO 67 9,6 C 13,8 C
24.08.2012 02:11 13,6 C 76 % 1012,1 hPa 0,0 l/m 2,9 km/h (1 Bft) NO 45 9,4 C 13,6 C
24.08.2012 02:16 13,6 C 76 % 1012,2 hPa 0,0 l/m 3,6 km/h (1 Bft) SO 135 9,4 C 13,6 C
24.08.2012 02:21 13,7 C 76 % 1012,1 hPa 0,0 l/m 2,5 km/h (1 Bft) O-NO 67 9,5 C 13,7 C
24.08.2012 02:26 13,7 C 76 % 1012,1 hPa 0,0 l/m 3,2 km/h (1 Bft) O 90 9,5 C 13,7 C
24.08.2012 02:31 13,7 C 77 % 1012,1 hPa 0,0 l/m 3,2 km/h (1 Bft) O-NO 67 9,7 C 13,7 C
24.08.2012 02:36 13,7 C 77 % 1011,9 hPa 0,0 l/m 2,2 km/h (1 Bft) O-NO 67 9,7 C 13,7 C
24.08.2012 02:41 13,6 C 77 % 1012,1 hPa 0,0 l/m 2,9 km/h (1 Bft) O 90 9,6 C 13,6 C
24.08.2012 02:46 13,6 C 77 % 1012,1 hPa 0,0 l/m 4,0 km/h (1 Bft) O-SO 112 9,6 C 13,6 C
24.08.2012 02:51 13,6 C 77 % 1012,0 hPa 0,0 l/m 2,5 km/h (1 Bft) O-SO 112 9,6 C 13,6 C
24.08.2012 02:56 13,5 C 77 % 1011,7 hPa 0,0 l/m 2,5 km/h (1 Bft) SO 135 9,5 C 13,5 C
24.08.2012 03:01 13,4 C 78 % 1011,8 hPa 0,0 l/m 4,0 km/h (1 Bft) SO 135 9,6 C 13,4 C
24.08.2012 03:06 13,3 C 78 % 1012,0 hPa 0,0 l/m 3,2 km/h (1 Bft) SO 135 9,5 C 13,3 C
24.08.2012 03:11 13,2 C 78 % 1011,9 hPa 0,0 l/m 0,0 km/h (0 Bft) O-SO 112 9,4 C 13,2 C
24.08.2012 03:16 13,1 C 78 % 1011,7 hPa 0,0 l/m 0,0 km/h (0 Bft) SO 135 9,4 C 13,1 C
24.08.2012 03:21 12,9 C 79 % 1011,5 hPa 0,0 l/m 4,0 km/h (1 Bft) O 90 9,3 C 12,9 C
24.08.2012 03:26 12,9 C 79 % 1011,7 hPa 0,0 l/m 3,6 km/h (1 Bft) O 90 9,3 C 12,9 C
24.08.2012 03:31 12,9 C 79 % 1011,5 hPa 0,0 l/m 4,3 km/h (1 Bft) O 90 9,3 C 12,9 C
24.08.2012 03:36 12,9 C 79 % 1011,6 hPa 0,0 l/m 4,3 km/h (1 Bft) O-SO 112 9,3 C 12,9 C
24.08.2012 03:41 12,9 C 80 % 1011,6 hPa 0,0 l/m 0,0 km/h (0 Bft) O-NO 67 9,5 C 12,9 C
24.08.2012 03:46 12,9 C 80 % 1011,3 hPa 0,0 l/m 3,2 km/h (1 Bft) O 90 9,5 C 12,9 C
24.08.2012 03:51 12,9 C 80 % 1011,3 hPa 0,0 l/m 4,0 km/h (1 Bft) O-NO 67 9,5 C 12,9 C
24.08.2012 03:56 12,9 C 81 % 1011,4 hPa 0,0 l/m 10,1 km/h (2 Bft) O-NO 67 9,7 C 12,9 C
24.08.2012 04:01 12,9 C 81 % 1011,3 hPa 0,0 l/m 6,1 km/h (2 Bft) O-NO 67 9,7 C 12,9 C
24.08.2012 04:06 12,9 C 81 % 1011,4 hPa 0,0 l/m 6,5 km/h (2 Bft) O-NO 67 9,7 C 12,9 C
24.08.2012 04:11 12,9 C 81 % 1011,3 hPa 0,0 l/m 2,9 km/h (1 Bft) O-NO 67 9,7 C 12,9 C
24.08.2012 04:16 12,9 C 81 % 1011,2 hPa 0,0 l/m 4,3 km/h (1 Bft) O-NO 67 9,7 C 12,9 C
24.08.2012 04:21 13,0 C 81 % 1011,2 hPa 0,0 l/m 7,2 km/h (2 Bft) O-NO 67 9,8 C 13,0 C
24.08.2012 04:26 13,0 C 81 % 1011,1 hPa 0,0 l/m 2,5 km/h (1 Bft) NO 45 9,8 C 13,0 C
24.08.2012 04:31 13,0 C 81 % 1011,0 hPa 0,0 l/m 5,8 km/h (2 Bft) O-NO 67 9,8 C 13,0 C
24.08.2012 04:36 13,1 C 81 % 1011,0 hPa 0,0 l/m 1,8 km/h (1 Bft) O-NO 67 9,9 C 13,1 C
24.08.2012 04:41 13,2 C 81 % 1010,9 hPa 0,0 l/m 2,9 km/h (1 Bft) O-NO 67 10,0 C 13,2 C
24.08.2012 04:46 13,2 C 80 % 1010,8 hPa 0,0 l/m 1,8 km/h (1 Bft) SO 135 9,8 C 13,2 C
24.08.2012 04:51 13,2 C 80 % 1010,8 hPa 0,0 l/m 6,5 km/h (2 Bft) SO 135 9,8 C 13,2 C
24.08.2012 04:56 13,1 C 80 % 1010,8 hPa 0,0 l/m 5,0 km/h (1 Bft) O-SO 112 9,7 C 13,1 C
24.08.2012 05:01 13,1 C 80 % 1010,7 hPa 0,0 l/m 3,6 km/h (1 Bft) O-SO 112 9,7 C 13,1 C
24.08.2012 05:06 13,0 C 80 % 1010,7 hPa 0,0 l/m 2,2 km/h (1 Bft) O 90 9,6 C 13,0 C
24.08.2012 05:11 13,1 C 81 % 1010,7 hPa 0,0 l/m 2,2 km/h (1 Bft) O-SO 112 9,9 C 13,1 C
24.08.2012 05:16 13,1 C 80 % 1010,6 hPa 0,0 l/m 3,2 km/h (1 Bft) O-SO 112 9,7 C 13,1 C
24.08.2012 05:21 13,1 C 80 % 1010,5 hPa 0,0 l/m 1,4 km/h (1 Bft) O-SO 112 9,7 C 13,1 C
24.08.2012 05:26 13,2 C 80 % 1010,6 hPa 0,0 l/m 1,8 km/h (1 Bft) O-SO 112 9,8 C 13,2 C
24.08.2012 05:31 13,2 C 80 % 1010,5 hPa 0,0 l/m 4,7 km/h (1 Bft) O-SO 112 9,8 C 13,2 C
24.08.2012 05:36 13,2 C 80 % 1010,4 hPa 0,0 l/m 3,2 km/h (1 Bft) O-SO 112 9,8 C 13,2 C
24.08.2012 05:41 13,2 C 80 % 1010,5 hPa 0,0 l/m 3,6 km/h (1 Bft) O-SO 112 9,8 C 13,2 C
24.08.2012 05:46 13,3 C 80 % 1010,4 hPa 0,0 l/m 2,5 km/h (1 Bft) O-SO 112 9,9 C 13,3 C
24.08.2012 05:51 13,3 C 80 % 1010,3 hPa 0,0 l/m 1,8 km/h (1 Bft) O-SO 112 9,9 C 13,3 C
24.08.2012 05:56 13,3 C 80 % 1010,3 hPa 0,0 l/m 4,7 km/h (1 Bft) O-SO 112 9,9 C 13,3 C
24.08.2012 06:01 13,3 C 80 % 1010,1 hPa 0,0 l/m 2,5 km/h (1 Bft) O-SO 112 9,9 C 13,3 C
24.08.2012 06:06 13,3 C 80 % 1010,0 hPa 0,0 l/m 5,8 km/h (2 Bft) O-SO 112 9,9 C 13,3 C
24.08.2012 06:11 13,3 C 81 % 1010,0 hPa 0,0 l/m 5,0 km/h (1 Bft) O-NO 67 10,1 C 13,3 C
24.08.2012 06:16 13,3 C 81 % 1009,9 hPa 0,0 l/m 4,0 km/h (1 Bft) O-SO 112 10,1 C 13,3 C
24.08.2012 06:21 13,3 C 82 % 1009,8 hPa 0,0 l/m 9,0 km/h (2 Bft) O-SO 112 10,3 C 13,3 C
24.08.2012 06:26 13,4 C 82 % 1009,5 hPa 0,0 l/m 4,0 km/h (1 Bft) O-SO 112 10,4 C 13,4 C
24.08.2012 06:31 13,4 C 82 % 1009,4 hPa 0,0 l/m 3,6 km/h (1 Bft) NO 45 10,4 C 13,4 C
24.08.2012 06:36 13,4 C 82 % 1009,3 hPa 0,0 l/m 8,3 km/h (2 Bft) O-NO 67 10,4 C 13,4 C
24.08.2012 06:41 13,4 C 82 % 1009,4 hPa 0,0 l/m 3,2 km/h (1 Bft) O-NO 67 10,4 C 13,4 C
24.08.2012 06:46 13,4 C 83 % 1009,4 hPa 0,0 l/m 8,6 km/h (2 Bft) O-SO 112 10,6 C 13,4 C
24.08.2012 06:51 13,5 C 83 % 1009,5 hPa 0,0 l/m 6,8 km/h (2 Bft) O-SO 112 10,7 C 13,5 C
24.08.2012 06:56 13,5 C 83 % 1009,3 hPa 0,0 l/m 3,2 km/h (1 Bft) O-SO 112 10,7 C 13,5 C
24.08.2012 07:01 13,6 C 82 % 1009,2 hPa 0,0 l/m 4,7 km/h (1 Bft) O-NO 67 10,6 C 13,6 C
24.08.2012 07:06 13,6 C 82 % 1009,1 hPa 0,0 l/m 5,4 km/h (1 Bft) O-NO 67 10,6 C 13,6 C
24.08.2012 07:11 13,6 C 82 % 1008,9 hPa 0,0 l/m 4,3 km/h (1 Bft) O-SO 112 10,6 C 13,6 C
24.08.2012 07:16 13,6 C 82 % 1009,0 hPa 0,0 l/m 1,8 km/h (1 Bft) O-SO 112 10,6 C 13,6 C
24.08.2012 07:21 13,6 C 82 % 1008,9 hPa 0,0 l/m 4,0 km/h (1 Bft) O-NO 67 10,6 C 13,6 C
24.08.2012 07:26 13,6 C 82 % 1008,9 hPa 0,0 l/m 6,5 km/h (2 Bft) O-NO 67 10,6 C 13,6 C
24.08.2012 07:31 13,7 C 82 % 1008,8 hPa 0,0 l/m 3,6 km/h (1 Bft) O-NO 67 10,7 C 13,7 C
24.08.2012 07:36 13,7 C 82 % 1008,9 hPa 0,0 l/m 5,8 km/h (2 Bft) O-NO 67 10,7 C 13,7 C
24.08.2012 07:41 13,7 C 82 % 1008,7 hPa 0,0 l/m 4,7 km/h (1 Bft) O-NO 67 10,7 C 13,7 C
24.08.2012 07:46 13,8 C 82 % 1008,5 hPa 0,0 l/m 5,8 km/h (2 Bft) O-SO 112 10,8 C 13,8 C
24.08.2012 07:51 13,8 C 82 % 1008,4 hPa 0,0 l/m 6,1 km/h (2 Bft) O-SO 112 10,8 C 13,8 C
24.08.2012 07:56 13,9 C 82 % 1008,2 hPa 0,0 l/m 4,7 km/h (1 Bft) O 90 10,9 C 13,9 C
24.08.2012 08:01 13,9 C 82 % 1008,5 hPa 0,0 l/m 2,5 km/h (1 Bft) O-SO 112 10,9 C 13,9 C
24.08.2012 08:06 13,9 C 82 % 1008,6 hPa 0,0 l/m 4,3 km/h (1 Bft) NO 45 10,9 C 13,9 C
24.08.2012 08:11 13,9 C 82 % 1008,6 hPa 0,0 l/m 2,5 km/h (1 Bft) O-NO 67 10,9 C 13,9 C
24.08.2012 08:16 13,9 C 81 % 1008,6 hPa 0,0 l/m 5,4 km/h (1 Bft) SO 135 10,7 C 13,9 C
24.08.2012 08:21 13,9 C 81 % 1008,4 hPa 0,0 l/m 0,0 km/h (0 Bft) O 90 10,7 C 13,9 C
24.08.2012 08:26 14,1 C 81 % 1008,7 hPa 0,0 l/m 2,2 km/h (1 Bft) O-NO 67 10,9 C 14,1 C
24.08.2012 08:31 14,1 C 81 % 1008,7 hPa 0,0 l/m 0,0 km/h (0 Bft) NO 45 10,9 C 14,1 C
24.08.2012 08:36 14,3 C 81 % 1008,5 hPa 0,0 l/m 4,0 km/h (1 Bft) NO 45 11,1 C 14,3 C
24.08.2012 08:41 14,3 C 80 % 1008,7 hPa 0,0 l/m 0,0 km/h (0 Bft) NO 45 10,9 C 14,3 C
24.08.2012 08:46 14,3 C 80 % 1008,6 hPa 0,0 l/m 4,7 km/h (1 Bft) O-NO 67 10,9 C 14,3 C
24.08.2012 08:51 14,4 C 80 % 1008,6 hPa 0,0 l/m 2,5 km/h (1 Bft) O-NO 67 11,0 C 14,4 C
24.08.2012 08:56 14,4 C 80 % 1008,8 hPa 0,0 l/m 3,6 km/h (1 Bft) O-NO 67 11,0 C 14,4 C
24.08.2012 09:01 14,4 C 79 % 1008,9 hPa 0,0 l/m 0,0 km/h (0 Bft) O-NO 67 10,8 C 14,4 C
24.08.2012 09:06 14,6 C 79 % 1009,2 hPa 0,0 l/m 0,0 km/h (0 Bft) O-NO 67 11,0 C 14,6 C
24.08.2012 09:11 14,8 C 79 % 1009,5 hPa 0,0 l/m 1,4 km/h (1 Bft) O-NO 67 11,2 C 14,8 C
24.08.2012 09:16 14,9 C 79 % 1009,3 hPa 0,0 l/m 0,0 km/h (0 Bft) O-NO 67 11,3 C 14,9 C
24.08.2012 09:21 14,9 C 79 % 1009,1 hPa 0,0 l/m 0,0 km/h (0 Bft) O-NO 67 11,3 C 14,9 C
24.08.2012 09:26 15,1 C 79 % 1009,1 hPa 0,0 l/m 0,0 km/h (0 Bft) O-NO 67 11,5 C 15,1 C
24.08.2012 09:31 15,3 C 78 % 1009,0 hPa 0,0 l/m 0,0 km/h (0 Bft) O-NO 67 11,5 C 15,3 C
24.08.2012 09:36 15,3 C 78 % 1009,2 hPa 0,0 l/m 0,0 km/h (0 Bft) O-NO 67 11,5 C 15,3 C
24.08.2012 09:41 15,4 C 78 % 1009,3 hPa 0,0 l/m 0,0 km/h (0 Bft) O-NO 67 11,6 C 15,4 C
24.08.2012 09:46 15,4 C 78 % 1009,5 hPa 0,0 l/m 1,1 km/h (1 Bft) O-NO 67 11,6 C 15,4 C
24.08.2012 09:51 15,6 C 78 % 1009,5 hPa 0,0 l/m 0,0 km/h (0 Bft) O-NO 67 11,8 C 15,6 C
24.08.2012 09:56 15,6 C 78 % 1009,3 hPa 0,0 l/m 0,0 km/h (0 Bft) O-NO 67 11,8 C 15,6 C
24.08.2012 10:01 15,7 C 77 % 1009,1 hPa 0,0 l/m 0,0 km/h (0 Bft) O-NO 67 11,7 C 15,7 C
24.08.2012 10:06 15,7 C 77 % 1009,1 hPa 0,0 l/m 3,2 km/h (1 Bft) O-NO 67 11,7 C 15,7 C
24.08.2012 10:11 15,6 C 77 % 1009,0 hPa 0,0 l/m 4,3 km/h (1 Bft) O-NO 67 11,6 C 15,6 C
24.08.2012 10:16 15,6 C 78 % 1008,7 hPa 0,0 l/m 5,4 km/h (1 Bft) NO 45 11,8 C 15,6 C
24.08.2012 10:21 15,6 C 78 % 1008,8 hPa 0,0 l/m 2,9 km/h (1 Bft) O-NO 67 11,8 C 15,6 C
24.08.2012 10:26 15,6 C 78 % 1008,9 hPa 0,0 l/m 5,4 km/h (1 Bft) O-NO 67 11,8 C 15,6 C
24.08.2012 10:31 15,6 C 78 % 1009,1 hPa 0,0 l/m 2,9 km/h (1 Bft) O-NO 67 11,8 C 15,6 C
24.08.2012 10:36 15,6 C 78 % 1009,0 hPa 0,0 l/m 3,6 km/h (1 Bft) O-SO 112 11,8 C 15,6 C
24.08.2012 10:41 15,6 C 79 % 1009,2 hPa 0,0 l/m 1,4 km/h (1 Bft) SO 135 12,0 C 15,6 C
24.08.2012 10:46 15,6 C 79 % 1009,2 hPa 0,0 l/m 1,1 km/h (1 Bft) SO 135 12,0 C 15,6 C
24.08.2012 10:51 15,6 C 80 % 1009,2 hPa 0,0 l/m 2,9 km/h (1 Bft) SO 135 12,2 C 15,6 C
24.08.2012 10:56 15,6 C 81 % 1008,8 hPa 0,5 l/m 0,0 km/h (0 Bft) O-SO 112 12,3 C 15,6 C
24.08.2012 11:01 15,5 C 81 % 1008,8 hPa 0,0 l/m 3,2 km/h (1 Bft) SO 135 12,3 C 15,5 C
24.08.2012 11:06 15,5 C 82 % 1008,7 hPa 0,0 l/m 3,2 km/h (1 Bft) O-SO 112 12,4 C 15,5 C
24.08.2012 11:11 15,5 C 82 % 1008,9 hPa 0,0 l/m 2,5 km/h (1 Bft) SO 135 12,4 C 15,5 C
24.08.2012 11:16 15,5 C 82 % 1009,1 hPa 0,0 l/m 4,3 km/h (1 Bft) O-SO 112 12,4 C 15,5 C
24.08.2012 11:21 15,5 C 82 % 1009,0 hPa 0,0 l/m 0,0 km/h (0 Bft) O-SO 112 12,4 C 15,5 C
24.08.2012 11:26 15,5 C 82 % 1009,1 hPa 0,0 l/m 0,0 km/h (0 Bft) O-SO 112 12,4 C 15,5 C
24.08.2012 11:31 15,5 C 83 % 1009,0 hPa 0,0 l/m 0,0 km/h (0 Bft) O-NO 67 12,6 C 15,5 C
24.08.2012 11:36 15,6 C 83 % 1008,9 hPa 0,0 l/m 4,3 km/h (1 Bft) O-SO 112 12,7 C 15,6 C
24.08.2012 11:41 15,7 C 83 % 1008,8 hPa 0,0 l/m 2,2 km/h (1 Bft) O-SO 112 12,8 C 15,7 C
24.08.2012 11:46 15,8 C 83 % 1008,8 hPa 0,0 l/m 1,8 km/h (1 Bft) NO 45 12,9 C 15,8 C
24.08.2012 11:51 15,8 C 83 % 1008,8 hPa 0,0 l/m 2,2 km/h (1 Bft) O-NO 67 12,9 C 15,8 C
24.08.2012 11:56 15,9 C 83 % 1008,7 hPa 0,0 l/m 0,0 km/h (0 Bft) NO 45 13,0 C 15,9 C
24.08.2012 12:01 15,9 C 83 % 1008,4 hPa 0,0 l/m 0,0 km/h (0 Bft) NO 45 13,0 C 15,9 C
24.08.2012 12:06 16,1 C 83 % 1008,1 hPa 0,0 l/m 3,6 km/h (1 Bft) O-NO 67 13,2 C 16,1 C
24.08.2012 12:11 16,2 C 82 % 1008,0 hPa 0,0 l/m 2,2 km/h (1 Bft) O-NO 67 13,1 C 16,2 C
24.08.2012 12:16 16,3 C 82 % 1008,0 hPa 0,0 l/m 4,3 km/h (1 Bft) O-NO 67 13,2 C 16,3 C
24.08.2012 12:21 16,4 C 82 % 1007,8 hPa 0,0 l/m 5,4 km/h (1 Bft) O-NO 67 13,3 C 16,4 C
24.08.2012 12:26 16,6 C 81 % 1008,0 hPa 0,0 l/m 5,0 km/h (1 Bft) O-NO 67 13,3 C 16,6 C
24.08.2012 12:31 16,8 C 80 % 1008,1 hPa 0,0 l/m 5,0 km/h (1 Bft) NO 45 13,3 C 16,8 C
24.08.2012 12:36 16,9 C 80 % 1008,1 hPa 0,0 l/m 8,3 km/h (2 Bft) NO 45 13,4 C 16,9 C
24.08.2012 12:41 17,2 C 79 % 1008,1 hPa 0,0 l/m 6,1 km/h (2 Bft) O 90 13,5 C 17,2 C
24.08.2012 12:46 17,4 C 79 % 1008,0 hPa 0,0 l/m 11,2 km/h (2 Bft) O-NO 67 13,7 C 17,4 C
24.08.2012 12:51 17,8 C 77 % 1007,9 hPa 0,0 l/m 9,4 km/h (2 Bft) NO 45 13,7 C 17,8 C
24.08.2012 12:56 17,9 C 77 % 1007,9 hPa 0,0 l/m 2,9 km/h (1 Bft) NO 45 13,8 C 17,9 C
24.08.2012 13:01 18,3 C 74 % 1008,0 hPa 0,0 l/m 1,4 km/h (1 Bft) O-NO 67 13,6 C 18,3 C
24.08.2012 13:06 18,4 C 74 % 1008,1 hPa 0,0 l/m 4,0 km/h (1 Bft) NO 45 13,7 C 18,4 C
24.08.2012 13:11 18,6 C 73 % 1008,1 hPa 0,0 l/m 2,5 km/h (1 Bft) NO 45 13,7 C 18,6 C
24.08.2012 13:16 18,7 C 73 % 1008,0 hPa 0,0 l/m 6,1 km/h (2 Bft) O-NO 67 13,8 C 18,7 C
24.08.2012 13:21 18,8 C 72 % 1008,0 hPa 0,0 l/m 0,0 km/h (0 Bft) O-NO 67 13,6 C 18,8 C
24.08.2012 13:26 18,8 C 71 % 1007,9 hPa 0,0 l/m 0,0 km/h (0 Bft) NO 45 13,4 C 18,8 C
24.08.2012 13:31 18,8 C 72 % 1007,9 hPa 0,0 l/m 4,3 km/h (1 Bft) NO 45 13,6 C 18,8 C
24.08.2012 13:36 18,8 C 72 % 1008,1 hPa 0,0 l/m 2,5 km/h (1 Bft) NO 45 13,6 C 18,8 C
24.08.2012 13:41 18,8 C 72 % 1008,1 hPa 0,0 l/m 2,2 km/h (1 Bft) O-NO 67 13,6 C 18,8 C
24.08.2012 13:46 18,8 C 72 % 1008,0 hPa 0,0 l/m 0,0 km/h (0 Bft) O-NO 67 13,6 C 18,8 C
24.08.2012 13:51 18,9 C 72 % 1008,2 hPa 0,0 l/m 2,2 km/h (1 Bft) O-NO 67 13,7 C 18,9 C
24.08.2012 13:56 18,8 C 73 % 1008,2 hPa 0,0 l/m 2,9 km/h (1 Bft) NO 45 13,9 C 18,8 C
24.08.2012 14:01 18,8 C 73 % 1008,1 hPa 0,0 l/m 1,4 km/h (1 Bft) O-NO 67 13,9 C 18,8 C
24.08.2012 14:06 18,8 C 73 % 1008,3 hPa 0,0 l/m 1,4 km/h (1 Bft) O-NO 67 13,9 C 18,8 C
24.08.2012 14:11 18,8 C 73 % 1008,3 hPa 0,0 l/m 1,4 km/h (1 Bft) NO 45 13,9 C 18,8 C
24.08.2012 14:16 18,9 C 74 % 1008,3 hPa 0,0 l/m 2,5 km/h (1 Bft) O 90 14,2 C 18,9 C
24.08.2012 14:21 18,9 C 73 % 1008,3 hPa 0,0 l/m 3,2 km/h (1 Bft) O-NO 67 13,9 C 18,9 C
24.08.2012 14:26 19,1 C 73 % 1008,3 hPa 0,0 l/m 1,1 km/h (1 Bft) O-SO 112 14,1 C 19,1 C
24.08.2012 14:31 19,3 C 72 % 1008,1 hPa 0,0 l/m 3,2 km/h (1 Bft) NO 45 14,1 C 19,3 C
24.08.2012 14:36 19,3 C 72 % 1008,2 hPa 0,0 l/m 0,0 km/h (0 Bft) O-NO 67 14,1 C 19,3 C
24.08.2012 14:41 19,3 C 70 % 1008,1 hPa 0,0 l/m 6,8 km/h (2 Bft) O-SO 112 13,7 C 19,3 C
24.08.2012 14:46 19,3 C 71 % 1008,1 hPa 0,0 l/m 4,0 km/h (1 Bft) O-NO 67 13,9 C 19,3 C
24.08.2012 14:51 19,3 C 71 % 1007,9 hPa 0,0 l/m 5,0 km/h (1 Bft) O-NO 67 13,9 C 19,3 C
24.08.2012 14:56 19,3 C 71 % 1007,8 hPa 0,0 l/m 5,8 km/h (2 Bft) O-NO 67 13,9 C 19,3 C
24.08.2012 15:01 19,4 C 68 % 1008,0 hPa 0,0 l/m 6,1 km/h (2 Bft) SO 135 13,3 C 19,4 C
24.08.2012 15:06 19,5 C 68 % 1008,2 hPa 0,0 l/m 6,5 km/h (2 Bft) O-SO 112 13,4 C 19,5 C
24.08.2012 15:11 19,5 C 68 % 1008,2 hPa 0,0 l/m 3,6 km/h (1 Bft) O-SO 112 13,4 C 19,5 C
24.08.2012 15:16 19,4 C 68 % 1008,1 hPa 0,0 l/m 5,8 km/h (2 Bft) O-SO 112 13,3 C 19,4 C
24.08.2012 15:21 19,4 C 68 % 1008,0 hPa 0,0 l/m 8,3 km/h (2 Bft) O-SO 112 13,3 C 19,4 C
24.08.2012 15:26 19,5 C 68 % 1008,1 hPa 0,0 l/m 8,6 km/h (2 Bft) SO 135 13,4 C 19,5 C
24.08.2012 15:31 19,6 C 68 % 1008,1 hPa 0,0 l/m 6,1 km/h (2 Bft) O-NO 67 13,5 C 19,6 C
24.08.2012 15:36 19,6 C 67 % 1008,3 hPa 0,0 l/m 6,5 km/h (2 Bft) O-NO 67 13,3 C 19,6 C
24.08.2012 15:41 19,5 C 67 % 1008,2 hPa 0,0 l/m 2,5 km/h (1 Bft) O-SO 112 13,2 C 19,5 C
24.08.2012 15:46 19,4 C 67 % 1008,2 hPa 0,0 l/m 0,0 km/h (0 Bft) S-SO 157 13,1 C 19,4 C
24.08.2012 15:51 19,4 C 68 % 1008,1 hPa 0,0 l/m 4,7 km/h (1 Bft) O-SO 112 13,3 C 19,4 C
24.08.2012 15:56 19,4 C 68 % 1008,2 hPa 0,0 l/m 6,1 km/h (2 Bft) O-NO 67 13,3 C 19,4 C
24.08.2012 16:01 19,4 C 68 % 1008,1 hPa 0,0 l/m 4,3 km/h (1 Bft) O-NO 67 13,3 C 19,4 C
24.08.2012 16:06 19,4 C 68 % 1008,1 hPa 0,0 l/m 5,8 km/h (2 Bft) NO 45 13,3 C 19,4 C
24.08.2012 16:11 19,3 C 68 % 1008,2 hPa 0,0 l/m 0,0 km/h (0 Bft) O-NO 67 13,2 C 19,3 C
24.08.2012 16:16 19,1 C 68 % 1007,9 hPa 0,0 l/m 5,0 km/h (1 Bft) O-NO 67 13,1 C 19,1 C
24.08.2012 16:21 19,1 C 69 % 1008,0 hPa 0,0 l/m 5,4 km/h (1 Bft) O-NO 67 13,3 C 19,1 C
24.08.2012 16:26 19,1 C 69 % 1007,8 hPa 0,0 l/m 2,2 km/h (1 Bft) O-SO 112 13,3 C 19,1 C
24.08.2012 16:31 19,3 C 69 % 1007,9 hPa 0,0 l/m 4,0 km/h (1 Bft) NO 45 13,5 C 19,3 C
24.08.2012 16:36 19,4 C 68 % 1007,9 hPa 0,0 l/m 4,7 km/h (1 Bft) O-NO 67 13,3 C 19,4 C
24.08.2012 16:41 19,4 C 68 % 1007,8 hPa 0,0 l/m 6,1 km/h (2 Bft) O 90 13,3 C 19,4 C
24.08.2012 16:46 19,4 C 68 % 1007,8 hPa 0,0 l/m 2,5 km/h (1 Bft) O 90 13,3 C 19,4 C
24.08.2012 16:51 19,5 C 68 % 1007,9 hPa 0,0 l/m 3,6 km/h (1 Bft) O-SO 112 13,4 C 19,5 C
24.08.2012 16:56 19,5 C 68 % 1008,0 hPa 0,0 l/m 0,0 km/h (0 Bft) O-SO 112 13,4 C 19,5 C
24.08.2012 17:01 19,6 C 68 % 1008,1 hPa 0,0 l/m 3,6 km/h (1 Bft) O-SO 112 13,5 C 19,6 C
24.08.2012 17:06 19,4 C 68 % 1008,2 hPa 0,0 l/m 0,0 km/h (0 Bft) O-NO 67 13,3 C 19,4 C
24.08.2012 17:11 19,4 C 68 % 1007,9 hPa 0,0 l/m 0,0 km/h (0 Bft) NO 45 13,3 C 19,4 C
24.08.2012 17:16 19,3 C 68 % 1008,0 hPa 0,0 l/m 2,2 km/h (1 Bft) NO 45 13,2 C 19,3 C
24.08.2012 17:21 19,2 C 68 % 1008,0 hPa 0,0 l/m 2,2 km/h (1 Bft) O-NO 67 13,1 C 19,2 C
24.08.2012 17:26 19,1 C 69 % 1007,9 hPa 0,0 l/m 0,0 km/h (0 Bft) O 90 13,3 C 19,1 C
24.08.2012 17:31 19,1 C 69 % 1007,9 hPa 0,0 l/m 1,8 km/h (1 Bft) NO 45 13,3 C 19,1 C
24.08.2012 17:36 19,1 C 69 % 1007,9 hPa 0,0 l/m 2,2 km/h (1 Bft) NO 45 13,3 C 19,1 C
24.08.2012 17:41 19,1 C 69 % 1007,8 hPa 0,0 l/m 1,1 km/h (1 Bft) NO 45 13,3 C 19,1 C
24.08.2012 17:46 19,1 C 69 % 1007,8 hPa 0,0 l/m 3,6 km/h (1 Bft) NO 45 13,3 C 19,1 C
24.08.2012 17:51 18,9 C 70 % 1007,9 hPa 0,0 l/m 3,2 km/h (1 Bft) O-NO 67 13,3 C 18,9 C
24.08.2012 17:56 18,9 C 70 % 1008,0 hPa 0,0 l/m 4,0 km/h (1 Bft) O-NO 67 13,3 C 18,9 C
24.08.2012 18:01 18,9 C 71 % 1008,0 hPa 0,0 l/m 3,6 km/h (1 Bft) NO 45 13,5 C 18,9 C
24.08.2012 18:06 18,9 C 71 % 1008,0 hPa 0,0 l/m 4,3 km/h (1 Bft) NO 45 13,5 C 18,9 C
24.08.2012 18:11 18,8 C 71 % 1008,1 hPa 0,0 l/m 2,5 km/h (1 Bft) O-NO 67 13,4 C 18,8 C
24.08.2012 18:16 18,7 C 71 % 1008,0 hPa 0,0 l/m 2,5 km/h (1 Bft) O-NO 67 13,3 C 18,7 C
24.08.2012 18:21 18,7 C 72 % 1008,0 hPa 0,0 l/m 3,6 km/h (1 Bft) O-NO 67 13,5 C 18,7 C
24.08.2012 18:26 18,6 C 72 % 1007,9 hPa 0,0 l/m 2,9 km/h (1 Bft) O 90 13,4 C 18,6 C
24.08.2012 18:31 18,6 C 72 % 1007,9 hPa 0,0 l/m 1,1 km/h (1 Bft) O-NO 67 13,4 C 18,6 C
24.08.2012 18:36 18,6 C 72 % 1007,5 hPa 0,0 l/m 4,7 km/h (1 Bft) O-NO 67 13,4 C 18,6 C
24.08.2012 18:41 18,5 C 72 % 1007,7 hPa 0,0 l/m 1,8 km/h (1 Bft) O-NO 67 13,4 C 18,5 C
24.08.2012 18:46 18,4 C 73 % 1007,8 hPa 0,0 l/m 0,0 km/h (0 Bft) NO 45 13,5 C 18,4 C
24.08.2012 18:51 18,4 C 73 % 1007,7 hPa 0,0 l/m 0,0 km/h (0 Bft) NO 45 13,5 C 18,4 C
24.08.2012 18:56 18,4 C 73 % 1007,9 hPa 0,0 l/m 0,0 km/h (0 Bft) NO 45 13,5 C 18,4 C
24.08.2012 19:01 18,4 C 73 % 1007,7 hPa 0,0 l/m 2,5 km/h (1 Bft) NO 45 13,5 C 18,4 C
24.08.2012 19:06 18,3 C 73 % 1007,6 hPa 0,0 l/m 1,4 km/h (1 Bft) O-NO 67 13,4 C 18,3 C
24.08.2012 19:11 18,3 C 73 % 1007,7 hPa 0,0 l/m 2,2 km/h (1 Bft) NO 45 13,4 C 18,3 C
24.08.2012 19:16 18,3 C 73 % 1007,7 hPa 0,0 l/m 2,5 km/h (1 Bft) NO 45 13,4 C 18,3 C
24.08.2012 19:21 18,2 C 73 % 1007,7 hPa 0,0 l/m 2,2 km/h (1 Bft) NO 45 13,3 C 18,2 C
24.08.2012 19:26 18,2 C 74 % 1007,7 hPa 0,0 l/m 2,5 km/h (1 Bft) O-NO 67 13,5 C 18,2 C
24.08.2012 19:31 18,2 C 74 % 1008,0 hPa 0,0 l/m 3,6 km/h (1 Bft) NO 45 13,5 C 18,2 C
24.08.2012 19:36 18,1 C 74 % 1008,0 hPa 0,0 l/m 2,9 km/h (1 Bft) N-NO 22 13,4 C 18,1 C
24.08.2012 19:41 18,0 C 75 % 1008,0 hPa 0,0 l/m 1,4 km/h (1 Bft) O-NO 67 13,5 C 18,0 C
24.08.2012 19:46 17,9 C 75 % 1008,1 hPa 0,0 l/m 0,0 km/h (0 Bft) O-NO 67 13,4 C 17,9 C
24.08.2012 19:51 17,8 C 76 % 1008,2 hPa 0,0 l/m 1,8 km/h (1 Bft) N 360 13,5 C 17,8 C
24.08.2012 19:56 17,8 C 76 % 1008,4 hPa 0,0 l/m 0,0 km/h (0 Bft) N-NO 22 13,5 C 17,8 C
24.08.2012 20:01 17,6 C 77 % 1008,3 hPa 0,0 l/m 3,6 km/h (1 Bft) O-NO 67 13,5 C 17,6 C
24.08.2012 20:06 17,5 C 77 % 1008,2 hPa 0,0 l/m 4,7 km/h (1 Bft) NO 45 13,4 C 17,5 C
24.08.2012 20:11 17,4 C 77 % 1008,0 hPa 0,0 l/m 2,2 km/h (1 Bft) O-NO 67 13,3 C 17,4 C
24.08.2012 20:16 17,4 C 78 % 1007,9 hPa 0,0 l/m 3,6 km/h (1 Bft) O-NO 67 13,5 C 17,4 C
24.08.2012 20:21 17,3 C 78 % 1007,9 hPa 0,0 l/m 3,6 km/h (1 Bft) NO 45 13,4 C 17,3 C
24.08.2012 20:26 17,3 C 78 % 1008,1 hPa 0,0 l/m 3,2 km/h (1 Bft) O-NO 67 13,4 C 17,3 C
24.08.2012 20:31 17,2 C 78 % 1008,0 hPa 0,0 l/m 6,5 km/h (2 Bft) NO 45 13,3 C 17,2 C
24.08.2012 20:36 17,1 C 78 % 1008,0 hPa 0,0 l/m 4,3 km/h (1 Bft) NO 45 13,2 C 17,1 C
24.08.2012 20:41 17,0 C 78 % 1008,1 hPa 0,0 l/m 3,6 km/h (1 Bft) N-NO 22 13,1 C 17,0 C
24.08.2012 20:46 16,9 C 79 % 1007,9 hPa 0,0 l/m 0,0 km/h (0 Bft) O-NO 67 13,2 C 16,9 C
24.08.2012 20:51 16,9 C 79 % 1007,9 hPa 0,0 l/m 0,0 km/h (0 Bft) NO 45 13,2 C 16,9 C
24.08.2012 20:56 16,9 C 79 % 1008,0 hPa 0,0 l/m 1,8 km/h (1 Bft) O-NO 67 13,2 C 16,9 C
24.08.2012 21:01 16,8 C 79 % 1007,9 hPa 0,0 l/m 2,5 km/h (1 Bft) O-NO 67 13,1 C 16,8 C
24.08.2012 21:06 16,8 C 80 % 1007,8 hPa 0,0 l/m 2,9 km/h (1 Bft) O-NO 67 13,3 C 16,8 C
24.08.2012 21:11 16,6 C 80 % 1007,8 hPa 0,0 l/m 0,0 km/h (0 Bft) O-NO 67 13,1 C 16,6 C
24.08.2012 21:16 16,5 C 80 % 1007,6 hPa 0,0 l/m 1,1 km/h (1 Bft) O-NO 67 13,0 C 16,5 C
24.08.2012 21:21 16,4 C 81 % 1007,6 hPa 0,0 l/m 0,0 km/h (0 Bft) O-NO 67 13,1 C 16,4 C
24.08.2012 21:26 16,3 C 81 % 1007,7 hPa 0,0 l/m 0,0 km/h (0 Bft) O-NO 67 13,0 C 16,3 C
24.08.2012 21:31 16,2 C 81 % 1007,7 hPa 0,0 l/m 0,0 km/h (0 Bft) O-NO 67 12,9 C 16,2 C
24.08.2012 21:36 16,1 C 81 % 1007,8 hPa 0,0 l/m 2,5 km/h (1 Bft) O-NO 67 12,8 C 16,1 C
24.08.2012 21:41 15,9 C 82 % 1008,0 hPa 0,0 l/m 0,0 km/h (0 Bft) O-NO 67 12,8 C 15,9 C
24.08.2012 21:46 15,9 C 82 % 1008,1 hPa 0,0 l/m 0,0 km/h (0 Bft) O-NO 67 12,8 C 15,9 C
24.08.2012 21:51 15,8 C 82 % 1008,1 hPa 0,0 l/m 0,0 km/h (0 Bft) O-NO 67 12,7 C 15,8 C
24.08.2012 21:56 15,8 C 82 % 1008,1 hPa 0,0 l/m 0,0 km/h (0 Bft) O-NO 67 12,7 C 15,8 C
24.08.2012 22:01 15,8 C 83 % 1008,0 hPa 0,0 l/m 0,0 km/h (0 Bft) O-NO 67 12,9 C 15,8 C
24.08.2012 22:06 15,8 C 83 % 1008,2 hPa 0,0 l/m 0,0 km/h (0 Bft) O-NO 67 12,9 C 15,8 C
24.08.2012 22:11 15,9 C 83 % 1008,2 hPa 0,0 l/m 1,4 km/h (1 Bft) O-NO 67 13,0 C 15,9 C
24.08.2012 22:16 15,9 C 83 % 1008,1 hPa 0,0 l/m 0,0 km/h (0 Bft) O-NO 67 13,0 C 15,9 C
24.08.2012 22:21 16,0 C 84 % 1008,2 hPa 0,0 l/m 1,1 km/h (1 Bft) O-NO 67 13,3 C 16,0 C
24.08.2012 22:26 16,1 C 84 % 1008,1 hPa 0,0 l/m 0,0 km/h (0 Bft) O-NO 67 13,4 C 16,1 C
24.08.2012 22:31 16,1 C 84 % 1007,9 hPa 0,0 l/m 0,0 km/h (0 Bft) O-NO 67 13,4 C 16,1 C
24.08.2012 22:36 16,1 C 84 % 1008,1 hPa 0,0 l/m 0,0 km/h (0 Bft) O-NO 67 13,4 C 16,1 C
24.08.2012 22:41 16,1 C 84 % 1008,1 hPa 0,0 l/m 0,0 km/h (0 Bft) O-NO 67 13,4 C 16,1 C
24.08.2012 22:46 16,1 C 84 % 1008,2 hPa 0,0 l/m 0,0 km/h (0 Bft) O-NO 67 13,4 C 16,1 C
24.08.2012 22:51 16,1 C 84 % 1008,1 hPa 0,0 l/m 0,0 km/h (0 Bft) O-NO 67 13,4 C 16,1 C
24.08.2012 22:56 16,1 C 84 % 1008,2 hPa 0,0 l/m 0,0 km/h (0 Bft) O-NO 67 13,4 C 16,1 C
24.08.2012 23:01 16,1 C 84 % 1008,1 hPa 0,0 l/m 1,8 km/h (1 Bft) O-SO 112 13,4 C 16,1 C
24.08.2012 23:06 16,1 C 84 % 1008,0 hPa 0,0 l/m 0,0 km/h (0 Bft) O-SO 112 13,4 C 16,1 C
24.08.2012 23:11 16,1 C 84 % 1008,0 hPa 0,0 l/m 0,0 km/h (0 Bft) O-SO 112 13,4 C 16,1 C
24.08.2012 23:16 16,1 C 83 % 1008,0 hPa 0,0 l/m 1,4 km/h (1 Bft) O-SO 112 13,2 C 16,1 C
24.08.2012 23:21 15,9 C 83 % 1008,1 hPa 0,0 l/m 0,0 km/h (0 Bft) O-SO 112 13,0 C 15,9 C
24.08.2012 23:26 15,9 C 83 % 1008,1 hPa 0,0 l/m 0,0 km/h (0 Bft) SO 135 13,0 C 15,9 C
24.08.2012 23:31 15,9 C 83 % 1008,0 hPa 0,0 l/m 0,0 km/h (0 Bft) O-SO 112 13,0 C 15,9 C
24.08.2012 23:36 15,9 C 84 % 1008,0 hPa 0,0 l/m 1,4 km/h (1 Bft) O-SO 112 13,2 C 15,9 C
24.08.2012 23:41 15,9 C 84 % 1007,8 hPa 0,0 l/m 3,6 km/h (1 Bft) O-SO 112 13,2 C 15,9 C
24.08.2012 23:46 15,8 C 84 % 1007,7 hPa 0,0 l/m 0,0 km/h (0 Bft) O-SO 112 13,1 C 15,8 C
24.08.2012 23:51 15,7 C 84 % 1007,8 hPa 0,0 l/m 0,0 km/h (0 Bft) SO 135 13,0 C 15,7 C
24.08.2012 23:56 15,6 C 84 % 1007,9 hPa 0,0 l/m 0,0 km/h (0 Bft) SO 135 12,9 C 15,6 C
_ Min-Zeit 03:21 15:36 18:36 - 00:01 - - 01:21 03:21
Minimum _ 12,9 C 67 % 1007,5 hPa - 0,0 km/h (0 Bft) - - 9,1 C 12,9 C
_ Max-Zeit 15:31 22:21 00:01 10:56 12:46 - - 14:16 15:31
Maximum _ 19,6 C 84 % 1013,0 hPa 0,5 l/m 11,2 km/h
O-NO (2 Bft)
- - 14,2 C 19,6 C
Durchschnitt _ 16,0 C 77 % 1009,2 hPa #0,5 l/m 2,6 km/h (1 Bft) O-NO - 11,9 C 16,0 C
(c) by David Heller